Time;durP1;ratioP1;P1;durP2;ratioP2;P2;SDS_P1;SDS_P2;PMS_P1;PMS_P2;Temp;Humidity;BMP_temperature;BMP_pressure;BME280_temperature;BME280_humidity;BME280_pressure;Samples;Min_cycle;Max_cycle;Signal;HPM_P1;HPM_P2
2022/07/21 00:01:55;;;;;;;0.80;0.73;;;;;;;;;;5065277;28;20987;-80
2022/07/21 00:04:22;;;;;;;0.70;0.60;;;;;;;;;;5056393;28;20793;-80
2022/07/21 00:06:50;;;;;;;0.70;0.60;;;;;;;;;;5056312;28;20478;-80
2022/07/21 00:09:17;;;;;;;1.10;1.00;;;;;;;;;;5056226;28;20439;-80
2022/07/21 00:11:44;;;;;;;0.70;0.60;;;;;;;;;;5056968;28;20443;-79
2022/07/21 00:14:12;;;;;;;0.73;0.73;;;;;;;;;;5058521;28;20425;-80
2022/07/21 00:16:46;;;;;;;0.70;0.70;;;;;;;;;;5055062;28;20419;-79
2022/07/21 00:19:12;;;;;;;0.70;0.60;;;;;;;;;;5055394;28;20808;-79
2022/07/21 00:21:39;;;;;;;5.47;1.10;;;;;;;;;;5054807;28;20494;-79
2022/07/21 00:24:06;;;;;;;3.33;1.63;;;;;;;;;;5056134;28;20406;-77
2022/07/21 00:26:33;;;;;;;0.70;0.60;;;;;;;;;;5057381;28;20867;-79
2022/07/21 00:28:59;;;;;;;0.80;0.80;;;;;;;;;;5058783;28;20451;-79
2022/07/21 00:31:27;;;;;;;0.90;0.90;;;;;;;;;;5073579;28;20895;-78
2022/07/21 00:33:55;;;;;;;1.33;1.10;;;;;;;;;;5077106;28;20411;-79
2022/07/21 00:36:22;;;;;;;0.70;0.60;;;;;;;;;;5075125;28;20441;-79
2022/07/21 00:38:49;;;;;;;0.70;0.70;;;;;;;;;;5058302;28;20443;-79
2022/07/21 00:41:17;;;;;;;1.30;1.00;;;;;;;;;;5073588;28;20994;-79
2022/07/21 00:43:43;;;;;;;1.00;0.90;;;;;;;;;;5075886;28;20453;-79
2022/07/21 00:46:12;;;;;;;0.70;0.60;;;;;;;;;;5072037;28;20546;-79
2022/07/21 00:48:41;;;;;;;1.20;1.10;;;;;;;;;;5054572;28;20413;-78
2022/07/21 00:51:12;;;;;;;1.50;1.40;;;;;;;;;;5053330;28;20468;-80
2022/07/21 00:53:45;;;;;;;0.70;0.60;;;;;;;;;;5054190;28;20458;-79
2022/07/21 00:56:18;;;;;;;2.20;1.33;;;;;;;;;;5054879;28;20521;-78
2022/07/21 00:58:49;;;;;;;0.70;0.70;;;;;;;;;;5054709;28;20887;-79
2022/07/21 01:01:21;;;;;;;0.70;0.70;;;;;;;;;;5060432;28;20823;-79
2022/07/21 01:03:51;;;;;;;0.77;0.77;;;;;;;;;;5074110;28;20447;-80
2022/07/21 01:06:25;;;;;;;0.97;0.87;;;;;;;;;;5072574;28;20473;-80
2022/07/21 01:08:54;;;;;;;0.80;0.80;;;;;;;;;;5070868;28;20423;-79
2022/07/21 01:11:31;;;;;;;0.70;0.60;;;;;;;;;;5058331;28;20437;-80
2022/07/21 01:14:02;;;;;;;0.70;0.70;;;;;;;;;;5073778;28;20447;-80
2022/07/21 01:16:32;;;;;;;1.33;1.23;;;;;;;;;;5071102;28;20446;-81
2022/07/21 01:19:08;;;;;;;0.70;0.70;;;;;;;;;;5073789;28;20454;-80
2022/07/21 01:21:42;;;;;;;0.70;0.60;;;;;;;;;;5073833;28;20471;-80
2022/07/21 01:24:15;;;;;;;0.70;0.63;;;;;;;;;;5057557;28;20489;-80
2022/07/21 01:26:48;;;;;;;1.03;0.97;;;;;;;;;;5065531;28;20854;-80
2022/07/21 01:29:18;;;;;;;0.80;0.80;;;;;;;;;;5064006;28;20450;-82
2022/07/21 01:31:53;;;;;;;0.60;0.60;;;;;;;;;;5063563;28;20518;-81
2022/07/21 01:34:26;;;;;;;0.70;0.70;;;;;;;;;;5054449;28;20405;-81
2022/07/21 01:37:01;;;;;;;1.03;0.93;;;;;;;;;;5052701;28;20495;-82
2022/07/21 01:42:22;;;;;;;0.90;0.90;;;;;;;;;;5054002;28;20402;-82
2022/07/21 01:44:57;;;;;;;1.13;1.03;;;;;;;;;;5054077;28;20412;-81
2022/07/21 01:47:28;;;;;;;1.30;1.20;;;;;;;;;;5053814;28;20453;-83
2022/07/21 01:49:59;;;;;;;1.33;1.23;;;;;;;;;;5062076;28;20442;-82
2022/07/21 01:52:30;;;;;;;1.10;1.00;;;;;;;;;;5040422;28;20466;-83
2022/07/21 01:55:01;;;;;;;0.70;0.60;;;;;;;;;;5053598;28;20438;-84
2022/07/21 01:57:28;;;;;;;2.83;0.90;;;;;;;;;;5047940;28;20493;-83
2022/07/21 01:59:55;;;;;;;2.13;2.03;;;;;;;;;;5053340;28;20949;-84
2022/07/21 02:02:26;;;;;;;0.60;0.60;;;;;;;;;;5052665;28;20440;-84
2022/07/21 02:04:58;;;;;;;0.80;0.80;;;;;;;;;;5053138;28;20963;-85
2022/07/21 02:07:25;;;;;;;0.70;0.60;;;;;;;;;;5053568;28;20467;-85
2022/07/21 02:09:53;;;;;;;0.70;0.70;;;;;;;;;;5052384;28;20448;-84
2022/07/21 02:12:20;;;;;;;0.80;0.80;;;;;;;;;;5055093;28;20486;-83
2022/07/21 02:14:47;;;;;;;0.67;0.60;;;;;;;;;;5036387;28;20430;-84
2022/07/21 02:17:13;;;;;;;1.40;1.20;;;;;;;;;;5054907;28;20493;-84
2022/07/21 02:19:41;;;;;;;0.70;0.60;;;;;;;;;;5052905;28;20460;-82
2022/07/21 02:22:08;;;;;;;0.90;0.90;;;;;;;;;;5052221;28;20552;-84
2022/07/21 02:24:34;;;;;;;1.07;0.97;;;;;;;;;;5053860;28;20944;-84
2022/07/21 02:27:03;;;;;;;1.10;1.00;;;;;;;;;;5057460;28;20460;-83
2022/07/21 02:29:29;;;;;;;1.20;1.10;;;;;;;;;;5070237;28;20502;-84
2022/07/21 02:31:56;;;;;;;0.80;0.80;;;;;;;;;;5072931;28;20422;-85
2022/07/21 02:34:23;;;;;;;0.60;0.60;;;;;;;;;;5056166;28;20439;-83
2022/07/21 02:36:50;;;;;;;2.23;2.13;;;;;;;;;;5072599;28;20516;-83
2022/07/21 02:39:18;;;;;;;0.90;0.90;;;;;;;;;;5072960;28;20441;-83
2022/07/21 02:41:45;;;;;;;0.60;0.50;;;;;;;;;;5072828;28;20777;-84
2022/07/21 02:44:13;;;;;;;4.60;1.63;;;;;;;;;;5060409;28;20550;-83
2022/07/21 02:46:41;;;;;;;1.03;0.77;;;;;;;;;;5052958;28;20569;-83
2022/07/21 02:49:10;;;;;;;0.80;0.80;;;;;;;;;;5054060;28;20469;-83
2022/07/21 02:51:37;;;;;;;3.23;1.10;;;;;;;;;;5054293;28;20498;-83
2022/07/21 02:54:04;;;;;;;1.73;1.47;;;;;;;;;;5052466;28;20437;-84
2022/07/21 02:56:31;;;;;;;1.03;1.00;;;;;;;;;;5054816;28;20432;-81
2022/07/21 02:59:01;;;;;;;0.60;0.50;;;;;;;;;;5059915;28;20437;-81
2022/07/21 03:01:29;;;;;;;0.60;0.60;;;;;;;;;;5055532;28;20517;-82
2022/07/21 03:03:57;;;;;;;1.33;1.23;;;;;;;;;;5036188;28;20469;-81
2022/07/21 03:06:23;;;;;;;0.70;0.67;;;;;;;;;;5056660;28;20462;-83
2022/07/21 03:08:50;;;;;;;1.20;1.10;;;;;;;;;;5060937;28;20441;-82
2022/07/21 03:11:18;;;;;;;1.93;0.90;;;;;;;;;;5076351;28;20484;-82
2022/07/21 03:13:45;;;;;;;0.70;0.70;;;;;;;;;;5077220;28;20408;-83
2022/07/21 03:16:11;;;;;;;1.73;1.63;;;;;;;;;;5074861;28;20418;-82
2022/07/21 03:18:41;;;;;;;1.47;1.17;;;;;;;;;;5075318;28;20436;-83
2022/07/21 03:21:08;;;;;;;1.10;1.00;;;;;;;;;;5073111;28;21165;-85
2022/07/21 03:23:34;;;;;;;0.63;0.60;;;;;;;;;;5062188;28;20500;-85
2022/07/21 03:26:01;;;;;;;0.80;0.80;;;;;;;;;;5067698;28;20453;-85
2022/07/21 03:28:27;;;;;;;1.20;1.00;;;;;;;;;;5056426;28;20480;-85
2022/07/21 03:30:54;;;;;;;0.80;0.80;;;;;;;;;;5077118;28;20520;-84
2022/07/21 03:33:21;;;;;;;3.47;0.97;;;;;;;;;;5071043;28;20445;-83
2022/07/21 03:35:50;;;;;;;0.70;0.70;;;;;;;;;;5077239;28;20454;-84
2022/07/21 03:38:16;;;;;;;0.67;0.60;;;;;;;;;;5074308;28;20985;-83
2022/07/21 03:40:43;;;;;;;1.00;0.87;;;;;;;;;;5075657;28;20427;-84
2022/07/21 03:43:10;;;;;;;0.70;0.70;;;;;;;;;;5058917;28;20515;-84
2022/07/21 03:45:37;;;;;;;0.70;0.60;;;;;;;;;;5059119;28;20473;-83
2022/07/21 03:48:05;;;;;;;0.67;0.60;;;;;;;;;;5072204;28;20470;-82
2022/07/21 03:50:33;;;;;;;0.70;0.60;;;;;;;;;;5075145;28;20489;-83
2022/07/21 03:53:01;;;;;;;0.60;0.60;;;;;;;;;;5063198;28;20439;-81
2022/07/21 03:55:29;;;;;;;0.80;0.80;;;;;;;;;;5053762;28;20433;-81
2022/07/21 03:57:56;;;;;;;0.77;0.77;;;;;;;;;;5051832;28;20497;-86
2022/07/21 04:00:24;;;;;;;0.70;0.60;;;;;;;;;;5058190;28;20443;-84
2022/07/21 04:02:51;;;;;;;0.70;0.70;;;;;;;;;;5059039;28;20940;-83
2022/07/21 04:05:19;;;;;;;0.60;0.60;;;;;;;;;;5075345;28;20424;-83
2022/07/21 04:07:47;;;;;;;1.73;0.80;;;;;;;;;;5057587;28;20502;-82
2022/07/21 04:10:16;;;;;;;0.80;0.80;;;;;;;;;;5057227;28;20549;-82
2022/07/21 04:12:43;;;;;;;0.70;0.60;;;;;;;;;;5075021;28;20483;-83
2022/07/21 04:15:10;;;;;;;0.80;0.77;;;;;;;;;;5075359;28;20431;-82
2022/07/21 04:17:38;;;;;;;0.70;0.60;;;;;;;;;;5057745;28;20455;-82
2022/07/21 04:20:05;;;;;;;2.70;1.60;;;;;;;;;;5076536;28;20487;-84
2022/07/21 04:22:32;;;;;;;4.20;1.73;;;;;;;;;;5056231;28;20565;-82
2022/07/21 04:24:59;;;;;;;0.80;0.80;;;;;;;;;;5074563;28;20486;-83
2022/07/21 04:27:28;;;;;;;0.60;0.60;;;;;;;;;;5073848;28;20470;-84
2022/07/21 04:29:55;;;;;;;0.83;0.83;;;;;;;;;;5075971;28;20428;-84
2022/07/21 04:32:23;;;;;;;0.70;0.70;;;;;;;;;;5057419;28;20513;-84
2022/07/21 04:34:50;;;;;;;0.60;0.50;;;;;;;;;;5073549;28;20465;-83
2022/07/21 04:37:21;;;;;;;0.70;0.60;;;;;;;;;;5054730;28;20846;-83
2022/07/21 04:39:51;;;;;;;0.70;0.70;;;;;;;;;;5055556;28;20462;-84
2022/07/21 04:42:19;;;;;;;0.70;0.67;;;;;;;;;;5037873;28;20435;-83
2022/07/21 04:44:50;;;;;;;0.70;0.60;;;;;;;;;;5055343;28;20428;-83
2022/07/21 04:47:17;;;;;;;0.70;0.60;;;;;;;;;;5036901;28;20469;-83
2022/07/21 04:49:44;;;;;;;0.70;0.70;;;;;;;;;;5054325;28;20434;-84
2022/07/21 04:52:11;;;;;;;0.83;0.83;;;;;;;;;;5054858;28;20530;-82
2022/07/21 04:54:39;;;;;;;1.67;1.57;;;;;;;;;;5054335;28;20479;-82
2022/07/21 04:57:06;;;;;;;0.90;0.80;;;;;;;;;;5061209;28;20440;-83
2022/07/21 04:59:33;;;;;;;0.80;0.80;;;;;;;;;;5057310;28;20840;-83
2022/07/21 05:02:02;;;;;;;0.70;0.70;;;;;;;;;;5073031;28;20558;-81
2022/07/21 05:04:28;;;;;;;1.10;1.00;;;;;;;;;;5073178;28;20996;-82
2022/07/21 05:06:56;;;;;;;0.90;0.90;;;;;;;;;;5073527;28;20855;-83
2022/07/21 05:09:23;;;;;;;1.17;1.10;;;;;;;;;;5061541;28;20435;-82
2022/07/21 05:11:50;;;;;;;1.00;1.00;;;;;;;;;;5037539;28;20438;-84
2022/07/21 05:14:17;;;;;;;1.07;1.03;;;;;;;;;;5054823;28;20920;-82
2022/07/21 05:16:45;;;;;;;0.67;0.67;;;;;;;;;;5041888;28;20496;-82
2022/07/21 05:19:13;;;;;;;1.00;0.97;;;;;;;;;;5070558;28;20462;-80
2022/07/21 05:21:40;;;;;;;1.93;1.83;;;;;;;;;;5062971;28;20471;-80
2022/07/21 05:24:08;;;;;;;0.70;0.60;;;;;;;;;;5056561;28;20441;-82
2022/07/21 05:26:36;;;;;;;0.87;0.87;;;;;;;;;;5071740;28;20538;-81
2022/07/21 05:29:03;;;;;;;0.80;0.80;;;;;;;;;;5073381;28;20499;-82
2022/07/21 05:31:30;;;;;;;0.90;0.80;;;;;;;;;;5072998;28;20830;-82
2022/07/21 05:33:57;;;;;;;0.70;0.60;;;;;;;;;;5036791;28;20540;-81
2022/07/21 05:36:25;;;;;;;0.90;0.90;;;;;;;;;;5053096;28;20482;-82
2022/07/21 05:38:52;;;;;;;0.70;0.70;;;;;;;;;;5036893;28;20445;-81
2022/07/21 05:41:21;;;;;;;0.80;0.80;;;;;;;;;;5054935;28;20431;-82
2022/07/21 05:43:48;;;;;;;0.60;0.60;;;;;;;;;;5055422;28;20412;-80
2022/07/21 05:46:15;;;;;;;0.67;0.60;;;;;;;;;;5054547;28;20428;-82
2022/07/21 05:48:46;;;;;;;1.20;1.20;;;;;;;;;;5053989;28;20478;-81
2022/07/21 05:51:12;;;;;;;0.70;0.70;;;;;;;;;;5053398;28;20447;-82
2022/07/21 05:53:46;;;;;;;0.60;0.60;;;;;;;;;;5038488;28;20948;-82
2022/07/21 05:56:13;;;;;;;0.70;0.70;;;;;;;;;;5053980;28;20852;-81
2022/07/21 05:58:42;;;;;;;0.60;0.60;;;;;;;;;;5071125;28;20477;-82
2022/07/21 06:01:09;;;;;;;1.07;1.00;;;;;;;;;;5074402;28;20466;-81
2022/07/21 06:03:37;;;;;;;0.70;0.60;;;;;;;;;;5074930;28;20435;-82
2022/07/21 06:06:05;;;;;;;1.77;1.23;;;;;;;;;;5056592;28;20469;-83
2022/07/21 06:08:31;;;;;;;0.77;0.73;;;;;;;;;;5055521;28;21008;-82
2022/07/21 06:11:00;;;;;;;0.60;0.60;;;;;;;;;;5053456;28;20828;-84
2022/07/21 06:13:27;;;;;;;8.93;1.63;;;;;;;;;;5053197;28;20483;-84
2022/07/21 06:15:54;;;;;;;0.60;0.60;;;;;;;;;;5053421;28;20535;-84
2022/07/21 06:18:24;;;;;;;0.67;0.67;;;;;;;;;;5052337;28;20432;-84
2022/07/21 06:20:51;;;;;;;0.60;0.60;;;;;;;;;;5051580;28;20470;-83
2022/07/21 06:23:18;;;;;;;0.60;0.60;;;;;;;;;;5071639;28;20436;-78
2022/07/21 06:25:45;;;;;;;0.80;0.80;;;;;;;;;;5070418;28;20471;-79
2022/07/21 06:28:13;;;;;;;1.73;1.13;;;;;;;;;;5076536;28;20477;-78
2022/07/21 06:30:40;;;;;;;0.70;0.70;;;;;;;;;;5072452;28;20432;-78
2022/07/21 06:33:07;;;;;;;0.70;0.60;;;;;;;;;;5071961;28;20438;-78
2022/07/21 06:35:34;;;;;;;0.60;0.60;;;;;;;;;;5072016;28;20469;-79
2022/07/21 06:38:02;;;;;;;0.73;0.70;;;;;;;;;;5070148;28;20490;-78
2022/07/21 06:40:31;;;;;;;0.70;0.70;;;;;;;;;;5076330;28;20452;-78
2022/07/21 06:42:58;;;;;;;0.60;0.60;;;;;;;;;;5076831;28;20426;-78
2022/07/21 06:45:46;;;;;;;0.83;0.80;;;;;;;;;;5062316;28;20827;-78
2022/07/21 06:48:13;;;;;;;1.17;1.10;;;;;;;;;;5078033;28;20453;-78
2022/07/21 06:50:40;;;;;;;0.70;0.60;;;;;;;;;;5074624;28;20429;-78
2022/07/21 06:53:07;;;;;;;0.70;0.60;;;;;;;;;;5059243;28;20449;-77
2022/07/21 06:55:34;;;;;;;0.67;0.60;;;;;;;;;;5075944;28;20423;-78
2022/07/21 06:58:08;;;;;;;0.70;0.70;;;;;;;;;;5076018;28;20517;-78
2022/07/21 07:00:35;;;;;;;0.70;0.70;;;;;;;;;;5077879;28;20978;-79
2022/07/21 07:03:03;;;;;;;0.60;0.60;;;;;;;;;;5076636;28;20441;-78
2022/07/21 07:05:30;;;;;;;0.70;0.60;;;;;;;;;;5075486;28;20443;-79
2022/07/21 07:07:57;;;;;;;1.37;1.00;;;;;;;;;;5056602;28;20509;-78
2022/07/21 07:10:24;;;;;;;1.07;0.97;;;;;;;;;;5078437;28;20431;-78
2022/07/21 07:12:51;;;;;;;1.27;1.17;;;;;;;;;;5068014;28;20436;-78
2022/07/21 07:15:38;;;;;;;0.70;0.60;;;;;;;;;;5060499;28;20449;-78
2022/07/21 07:18:06;;;;;;;0.70;0.70;;;;;;;;;;5072700;28;20445;-77
2022/07/21 07:20:34;;;;;;;0.70;0.60;;;;;;;;;;5060018;28;20432;-78
2022/07/21 07:23:01;;;;;;;0.80;0.70;;;;;;;;;;5040392;28;20449;-78
2022/07/21 07:25:28;;;;;;;0.70;0.60;;;;;;;;;;5054433;28;20452;-78
2022/07/21 07:27:58;;;;;;;1.33;1.23;;;;;;;;;;5069417;28;21063;-78
2022/07/21 07:30:25;;;;;;;0.70;0.70;;;;;;;;;;5058384;28;20443;-78
2022/07/21 07:32:52;;;;;;;0.90;0.90;;;;;;;;;;5056869;28;20517;-79
2022/07/21 07:35:21;;;;;;;1.13;1.03;;;;;;;;;;5057634;28;20444;-78
2022/07/21 07:37:48;;;;;;;0.90;0.90;;;;;;;;;;5074126;28;20494;-77
2022/07/21 07:40:16;;;;;;;0.70;0.60;;;;;;;;;;5072083;28;20412;-77
2022/07/21 07:42:44;;;;;;;0.70;0.60;;;;;;;;;;5075699;28;20438;-78
2022/07/21 07:45:11;;;;;;;0.70;0.60;;;;;;;;;;5075170;28;20816;-78
2022/07/21 07:47:38;;;;;;;0.70;0.60;;;;;;;;;;5058064;28;20867;-78
2022/07/21 07:50:06;;;;;;;0.87;0.87;;;;;;;;;;5057497;28;20997;-78
2022/07/21 07:52:34;;;;;;;0.87;0.87;;;;;;;;;;5072393;28;20463;-78
2022/07/21 07:55:04;;;;;;;0.93;0.87;;;;;;;;;;5076343;28;20431;-77
2022/07/21 07:57:33;;;;;;;0.77;0.70;;;;;;;;;;5076479;28;20961;-77
2022/07/21 08:00:00;;;;;;;0.70;0.60;;;;;;;;;;5058255;28;20476;-77
2022/07/21 08:02:37;;;;;;;0.70;0.70;;;;;;;;;;5075093;28;20402;-77
2022/07/21 08:05:04;;;;;;;1.00;1.00;;;;;;;;;;5073706;28;20935;-77
2022/07/21 08:07:31;;;;;;;0.70;0.70;;;;;;;;;;5075216;28;20435;-77
2022/07/21 08:10:00;;;;;;;0.90;0.90;;;;;;;;;;5073589;28;20505;-76
2022/07/21 08:12:47;;;;;;;0.70;0.70;;;;;;;;;;5055058;28;20539;-77
2022/07/21 08:15:15;;;;;;;0.80;0.80;;;;;;;;;;5054753;28;20626;-77
2022/07/21 08:17:42;;;;;;;0.80;0.80;;;;;;;;;;5047528;28;20455;-76
2022/07/21 08:20:10;;;;;;;1.20;1.10;;;;;;;;;;5055612;28;20428;-77
2022/07/21 08:22:36;;;;;;;1.20;1.10;;;;;;;;;;5038360;28;20479;-77
2022/07/21 08:25:05;;;;;;;0.70;0.70;;;;;;;;;;5056266;28;20530;-77
2022/07/21 08:27:32;;;;;;;1.60;1.50;;;;;;;;;;5063958;28;20437;-78
2022/07/21 08:30:00;;;;;;;0.70;0.70;;;;;;;;;;5059902;28;20551;-77
2022/07/21 08:32:26;;;;;;;0.80;0.80;;;;;;;;;;5056167;28;20813;-77
2022/07/21 08:34:54;;;;;;;1.47;1.07;;;;;;;;;;5054933;28;20432;-76
2022/07/21 08:37:21;;;;;;;0.80;0.80;;;;;;;;;;5055098;28;20523;-77
2022/07/21 08:39:48;;;;;;;0.70;0.60;;;;;;;;;;5054057;28;20540;-76
2022/07/21 08:42:16;;;;;;;1.23;1.13;;;;;;;;;;5062377;28;20443;-76
2022/07/21 08:44:43;;;;;;;1.10;1.00;;;;;;;;;;5074611;28;20407;-77
2022/07/21 08:47:11;;;;;;;2.33;2.20;;;;;;;;;;5056848;28;20527;-76
2022/07/21 08:49:38;;;;;;;0.70;0.70;;;;;;;;;;5056658;28;20503;-77
2022/07/21 08:52:06;;;;;;;0.80;0.80;;;;;;;;;;5074739;28;20455;-77
2022/07/21 08:54:33;;;;;;;2.40;2.20;;;;;;;;;;5074475;28;20465;-76
2022/07/21 08:57:20;;;;;;;0.70;0.70;;;;;;;;;;5061427;28;20448;-76
2022/07/21 08:59:49;;;;;;;0.70;0.70;;;;;;;;;;5073582;28;20408;-77
2022/07/21 09:02:26;;;;;;;2.70;2.03;;;;;;;;;;5073805;28;20439;-76
2022/07/21 09:04:52;;;;;;;2.93;1.03;;;;;;;;;;5073171;28;20965;-76
2022/07/21 09:07:22;;;;;;;1.13;1.03;;;;;;;;;;5070725;28;20962;-76
2022/07/21 09:09:54;;;;;;;1.33;1.23;;;;;;;;;;5055877;28;20438;-74
2022/07/21 09:12:23;;;;;;;0.80;0.70;;;;;;;;;;5071009;28;20448;-75
2022/07/21 09:14:50;;;;;;;0.70;0.70;;;;;;;;;;5075121;28;20447;-75
2022/07/21 09:17:17;;;;;;;0.80;0.70;;;;;;;;;;5072796;28;20473;-75
2022/07/21 09:19:45;;;;;;;0.80;0.70;;;;;;;;;;5076784;28;20451;-74
2022/07/21 09:22:18;;;;;;;1.10;1.00;;;;;;;;;;5075189;28;21216;-73
2022/07/21 09:24:48;;;;;;;1.43;1.33;;;;;;;;;;5060711;28;20522;-73
2022/07/21 09:27:17;;;;;;;0.80;0.77;;;;;;;;;;5076018;28;20431;-74
2022/07/21 09:29:46;;;;;;;0.80;0.70;;;;;;;;;;5059953;28;20427;-75
2022/07/21 09:32:20;;;;;;;0.90;0.90;;;;;;;;;;5056173;28;20863;-74
2022/07/21 09:34:49;;;;;;;0.80;0.80;;;;;;;;;;5058028;28;20762;-75
2022/07/21 09:37:16;;;;;;;0.70;0.63;;;;;;;;;;5051148;28;20554;-75
2022/07/21 09:39:44;;;;;;;0.73;0.70;;;;;;;;;;5055313;28;20855;-74
2022/07/21 09:42:12;;;;;;;0.90;0.80;;;;;;;;;;5054693;28;20888;-74
2022/07/21 09:44:41;;;;;;;1.00;0.90;;;;;;;;;;5057233;28;20448;-74
2022/07/21 09:47:13;;;;;;;0.80;0.70;;;;;;;;;;5038083;28;20968;-75
2022/07/21 09:49:41;;;;;;;0.80;0.70;;;;;;;;;;5069585;28;20524;-74
2022/07/21 09:52:29;;;;;;;0.70;0.60;;;;;;;;;;5074004;28;20811;-73
2022/07/21 09:54:57;;;;;;;0.70;0.60;;;;;;;;;;5071839;28;20435;-74
2022/07/21 09:57:24;;;;;;;0.80;0.70;;;;;;;;;;5071576;28;20990;-75
2022/07/21 10:00:00;;;;;;;1.00;1.00;;;;;;;;;;5073592;28;20431;-74
2022/07/21 10:02:38;;;;;;;1.20;1.10;;;;;;;;;;5073892;28;20751;-73
2022/07/21 10:05:06;;;;;;;0.70;0.60;;;;;;;;;;5072576;28;20463;-74
2022/07/21 10:07:36;;;;;;;1.00;0.97;;;;;;;;;;5073566;28;20812;-73
2022/07/21 10:10:04;;;;;;;0.70;0.60;;;;;;;;;;5073288;28;20963;-73
2022/07/21 10:12:31;;;;;;;0.80;0.70;;;;;;;;;;5071137;28;20442;-75
2022/07/21 10:14:58;;;;;;;0.70;0.63;;;;;;;;;;5071170;28;20401;-75
2022/07/21 10:17:25;;;;;;;0.70;0.63;;;;;;;;;;5072021;28;20939;-74
2022/07/21 10:20:00;;;;;;;1.40;1.30;;;;;;;;;;5072859;28;20505;-71
2022/07/21 10:22:34;;;;;;;0.80;0.70;;;;;;;;;;5072133;28;20842;-71
2022/07/21 10:25:02;;;;;;;1.00;0.90;;;;;;;;;;5067954;28;20473;-72
2022/07/21 10:27:29;;;;;;;0.80;0.70;;;;;;;;;;5039660;28;20438;-73
2022/07/21 10:30:36;;;;;;;1.27;1.07;;;;;;;;;;5036163;28;20473;-74
2022/07/21 10:33:03;;;;;;;0.80;0.70;;;;;;;;;;5052993;28;20427;-71
2022/07/21 10:35:31;;;;;;;0.80;0.70;;;;;;;;;;5051004;28;20426;-73
2022/07/21 10:37:59;;;;;;;1.67;1.23;;;;;;;;;;5052117;28;20462;-74
2022/07/21 10:40:36;;;;;;;1.13;1.03;;;;;;;;;;5065255;28;20459;-74
2022/07/21 10:43:21;;;;;;;38.67;2.13;;;;;;;;;;5072436;28;20426;-74
2022/07/21 10:45:48;;;;;;;0.80;0.70;;;;;;;;;;5072699;28;20814;-74
2022/07/21 10:48:29;;;;;;;0.80;0.70;;;;;;;;;;5072478;28;20480;-74
2022/07/21 10:50:58;;;;;;;0.90;0.90;;;;;;;;;;5072821;28;20490;-74
2022/07/21 10:53:25;;;;;;;0.80;0.70;;;;;;;;;;5073419;28;20471;-75
2022/07/21 10:55:53;;;;;;;0.80;0.80;;;;;;;;;;5071309;28;20428;-75
2022/07/21 10:58:25;;;;;;;0.80;0.80;;;;;;;;;;5073076;28;20439;-72
2022/07/21 11:00:52;;;;;;;4.60;1.63;;;;;;;;;;5073723;28;20506;-74
2022/07/21 11:03:23;;;;;;;0.90;0.90;;;;;;;;;;5063048;28;20476;-74
2022/07/21 11:06:05;;;;;;;0.70;0.70;;;;;;;;;;5058008;28;20442;-75
2022/07/21 11:08:35;;;;;;;0.97;0.87;;;;;;;;;;5067241;28;20443;-76
2022/07/21 11:11:07;;;;;;;2.40;2.30;;;;;;;;;;5070435;28;20466;-74
2022/07/21 11:13:49;;;;;;;1.50;1.40;;;;;;;;;;5072031;28;20459;-74
2022/07/21 11:16:17;;;;;;;0.77;0.77;;;;;;;;;;5072424;28;20954;-75
2022/07/21 11:18:44;;;;;;;1.43;1.33;;;;;;;;;;5072005;28;20934;-76
2022/07/21 11:21:12;;;;;;;0.97;0.87;;;;;;;;;;5077047;28;20459;-75
2022/07/21 11:23:42;;;;;;;1.13;1.00;;;;;;;;;;5054598;28;20436;-76
2022/07/21 11:26:10;;;;;;;0.90;0.80;;;;;;;;;;5058196;28;20456;-76
2022/07/21 11:28:38;;;;;;;3.63;1.90;;;;;;;;;;5060642;28;20459;-78
2022/07/21 11:31:06;;;;;;;1.57;1.47;;;;;;;;;;5076082;28;20475;-79
2022/07/21 11:33:35;;;;;;;3.33;2.57;;;;;;;;;;5056283;28;20451;-79
2022/07/21 11:36:02;;;;;;;1.57;1.33;;;;;;;;;;5056589;28;20488;-80
2022/07/21 11:38:36;;;;;;;1.20;1.10;;;;;;;;;;5055712;28;20446;-80
2022/07/21 11:41:18;;;;;;;0.70;0.60;;;;;;;;;;5054854;28;20451;-80
2022/07/21 11:43:49;;;;;;;0.80;0.80;;;;;;;;;;5055541;28;20459;-80
2022/07/21 11:46:16;;;;;;;1.17;1.07;;;;;;;;;;5056715;28;20422;-81
2022/07/21 11:48:43;;;;;;;1.00;0.90;;;;;;;;;;5055160;28;21020;-79
2022/07/21 11:51:10;;;;;;;1.43;1.27;;;;;;;;;;5055560;28;20507;-78
2022/07/21 11:53:42;;;;;;;0.87;0.87;;;;;;;;;;5038815;28;20438;-78
2022/07/21 11:56:13;;;;;;;1.30;1.20;;;;;;;;;;5056228;28;20498;-76
2022/07/21 11:58:41;;;;;;;0.80;0.80;;;;;;;;;;5074497;28;20448;-76
2022/07/21 12:01:11;;;;;;;0.70;0.60;;;;;;;;;;5074519;28;20756;-77
2022/07/21 12:03:48;;;;;;;0.70;0.60;;;;;;;;;;5075434;28;20454;-76
2022/07/21 12:06:16;;;;;;;0.80;0.80;;;;;;;;;;5073968;28;20478;-76
2022/07/21 12:08:44;;;;;;;1.17;1.10;;;;;;;;;;5074654;28;20461;-76
2022/07/21 12:11:14;;;;;;;0.90;0.77;;;;;;;;;;5074481;28;20471;-76
2022/07/21 12:13:55;;;;;;;0.70;0.70;;;;;;;;;;5076135;28;20412;-78
2022/07/21 12:16:23;;;;;;;1.57;1.47;;;;;;;;;;5074934;28;20497;-78
2022/07/21 12:19:05;;;;;;;0.70;0.67;;;;;;;;;;5076363;28;20506;-78
2022/07/21 12:21:42;;;;;;;0.70;0.60;;;;;;;;;;5057219;28;20471;-77
2022/07/21 12:24:09;;;;;;;0.70;0.70;;;;;;;;;;5053973;28;20427;-78
2022/07/21 12:26:35;;;;;;;0.70;0.70;;;;;;;;;;5058164;28;20811;-77
2022/07/21 12:29:03;;;;;;;0.70;0.60;;;;;;;;;;5070342;28;20458;-77
2022/07/21 12:31:32;;;;;;;0.80;0.80;;;;;;;;;;5070618;28;20974;-76
2022/07/21 12:34:09;;;;;;;0.70;0.70;;;;;;;;;;5052872;28;20448;-77
2022/07/21 12:36:53;;;;;;;0.70;0.70;;;;;;;;;;5051943;28;20468;-78
2022/07/21 12:42:07;;;;;;;1.17;0.93;;;;;;;;;;5056075;28;20474;-78
2022/07/21 12:44:35;;;;;;;0.70;0.60;;;;;;;;;;5054346;28;20444;-77
2022/07/21 12:47:12;;;;;;;0.70;0.60;;;;;;;;;;5060398;28;20451;-78
2022/07/21 12:49:53;;;;;;;1.33;1.23;;;;;;;;;;5055224;28;20486;-78
2022/07/21 12:52:35;;;;;;;0.77;0.77;;;;;;;;;;5055049;28;20467;-77
2022/07/21 12:55:02;;;;;;;0.70;0.70;;;;;;;;;;5055250;28;20439;-79
2022/07/21 12:57:29;;;;;;;0.90;0.90;;;;;;;;;;5059767;28;20450;-79
2022/07/21 12:59:57;;;;;;;0.80;0.70;;;;;;;;;;5057180;28;20459;-79
2022/07/21 13:02:24;;;;;;;0.70;0.60;;;;;;;;;;5056636;28;20803;-78
2022/07/21 13:04:53;;;;;;;0.70;0.67;;;;;;;;;;5073349;28;20446;-78
2022/07/21 13:07:19;;;;;;;0.70;0.70;;;;;;;;;;5062715;28;21006;-79
2022/07/21 13:09:47;;;;;;;0.87;0.87;;;;;;;;;;5056233;28;20467;-78
2022/07/21 13:12:14;;;;;;;0.70;0.70;;;;;;;;;;5053394;28;20414;-77
2022/07/21 13:14:41;;;;;;;0.70;0.63;;;;;;;;;;5053823;28;20430;-78
2022/07/21 13:17:09;;;;;;;0.73;0.73;;;;;;;;;;5053758;28;20778;-79
2022/07/21 13:19:38;;;;;;;0.70;0.70;;;;;;;;;;5053839;28;20423;-78
2022/07/21 13:22:04;;;;;;;0.70;0.70;;;;;;;;;;5052545;28;20474;-77
2022/07/21 13:24:31;;;;;;;0.70;0.70;;;;;;;;;;5052072;28;20495;-78
2022/07/21 13:26:58;;;;;;;1.23;1.13;;;;;;;;;;5057940;28;20450;-78
2022/07/21 13:29:25;;;;;;;1.57;1.47;;;;;;;;;;5039059;28;20471;-78
2022/07/21 13:31:53;;;;;;;0.70;0.70;;;;;;;;;;5054653;28;20414;-78
2022/07/21 13:34:21;;;;;;;1.20;1.10;;;;;;;;;;5053409;28;20996;-78
2022/07/21 13:36:50;;;;;;;1.20;1.10;;;;;;;;;;5072769;28;20961;-78
2022/07/21 13:39:17;;;;;;;0.70;0.70;;;;;;;;;;5072651;28;20919;-77
2022/07/21 13:42:05;;;;;;;0.90;0.90;;;;;;;;;;5057599;28;20513;-79
2022/07/21 13:44:52;;;;;;;0.70;0.60;;;;;;;;;;5072589;28;20804;-79
2022/07/21 13:47:19;;;;;;;0.80;0.80;;;;;;;;;;5073396;28;20412;-78
2022/07/21 13:49:48;;;;;;;1.07;0.90;;;;;;;;;;5072164;28;20433;-79
2022/07/21 13:52:14;;;;;;;0.70;0.70;;;;;;;;;;5055702;28;21017;-79
2022/07/21 13:54:41;;;;;;;0.70;0.70;;;;;;;;;;5072936;28;20461;-77
2022/07/21 13:57:08;;;;;;;0.73;0.73;;;;;;;;;;5060150;28;20848;-79
2022/07/21 13:59:35;;;;;;;0.70;0.70;;;;;;;;;;5055525;28;20431;-79
2022/07/21 14:02:01;;;;;;;0.70;0.70;;;;;;;;;;5072658;28;20884;-79
2022/07/21 14:04:28;;;;;;;0.80;0.80;;;;;;;;;;5073617;28;20437;-78
2022/07/21 14:06:57;;;;;;;0.70;0.60;;;;;;;;;;5073414;28;20454;-79
2022/07/21 14:09:24;;;;;;;0.70;0.70;;;;;;;;;;5074062;28;20418;-80
2022/07/21 14:11:52;;;;;;;0.80;0.80;;;;;;;;;;5073091;28;21047;-79
2022/07/21 14:14:22;;;;;;;1.20;1.10;;;;;;;;;;5055827;28;20445;-79
2022/07/21 14:16:49;;;;;;;0.80;0.80;;;;;;;;;;5072012;28;20506;-78
2022/07/21 14:19:17;;;;;;;0.70;0.70;;;;;;;;;;5060744;28;20444;-79
2022/07/21 14:21:44;;;;;;;0.80;0.80;;;;;;;;;;5054137;28;20440;-80
2022/07/21 14:26:58;;;;;;;0.70;0.60;;;;;;;;;;5071326;28;20840;-78
2022/07/21 14:29:25;;;;;;;0.70;0.63;;;;;;;;;;5073089;28;21133;-77
2022/07/21 14:31:52;;;;;;;0.63;0.60;;;;;;;;;;5055771;28;20470;-76
2022/07/21 14:34:19;;;;;;;0.80;0.80;;;;;;;;;;5056425;28;20442;-77
2022/07/21 14:36:47;;;;;;;0.70;0.60;;;;;;;;;;5054236;28;20460;-78
2022/07/21 14:39:15;;;;;;;0.93;0.87;;;;;;;;;;5066202;28;20508;-78
2022/07/21 14:41:44;;;;;;;0.70;0.60;;;;;;;;;;5072473;28;20442;-78
2022/07/21 14:44:11;;;;;;;0.70;0.70;;;;;;;;;;5056148;28;21002;-80
2022/07/21 14:46:37;;;;;;;0.70;0.60;;;;;;;;;;5072058;28;20434;-78
2022/07/21 14:49:07;;;;;;;0.87;0.87;;;;;;;;;;5072573;28;20440;-79
2022/07/21 14:51:33;;;;;;;0.87;0.87;;;;;;;;;;5069807;28;20983;-79
2022/07/21 14:54:01;;;;;;;0.70;0.60;;;;;;;;;;5060417;28;20931;-78
2022/07/21 14:56:31;;;;;;;0.70;0.70;;;;;;;;;;5069503;28;20472;-79
2022/07/21 14:59:18;;;;;;;0.70;0.67;;;;;;;;;;5039176;28;20474;-79
2022/07/21 15:01:44;;;;;;;0.70;0.60;;;;;;;;;;5072285;28;20420;-79
2022/07/21 15:04:11;;;;;;;0.83;0.83;;;;;;;;;;5061124;28;20432;-78